sensor_id;sensor_type;location;lat;lon;timestamp;P1;durP1;ratioP1;P2;durP2;ratioP2
24644;SDS011;12780;45.502;9.146;2024-01-10T00:01:37;11.27;;;6.18;;
24644;SDS011;12780;45.502;9.146;2024-01-10T00:04:03;17.33;;;6.72;;
24644;SDS011;12780;45.502;9.146;2024-01-10T00:06:29;12.13;;;6.15;;
24644;SDS011;12780;45.502;9.146;2024-01-10T00:08:55;14.57;;;6.25;;
24644;SDS011;12780;45.502;9.146;2024-01-10T00:11:21;14.40;;;6.43;;
24644;SDS011;12780;45.502;9.146;2024-01-10T00:13:47;15.73;;;7.22;;
24644;SDS011;12780;45.502;9.146;2024-01-10T00:16:13;22.55;;;7.43;;
24644;SDS011;12780;45.502;9.146;2024-01-10T00:18:40;14.55;;;7.07;;
24644;SDS011;12780;45.502;9.146;2024-01-10T00:21:06;19.42;;;6.95;;
24644;SDS011;12780;45.502;9.146;2024-01-10T00:23:32;16.10;;;6.63;;
24644;SDS011;12780;45.502;9.146;2024-01-10T00:25:58;18.83;;;7.18;;
24644;SDS011;12780;45.502;9.146;2024-01-10T00:28:25;18.08;;;7.10;;
24644;SDS011;12780;45.502;9.146;2024-01-10T00:30:51;13.68;;;6.70;;
24644;SDS011;12780;45.502;9.146;2024-01-10T00:33:17;14.75;;;6.93;;
24644;SDS011;12780;45.502;9.146;2024-01-10T00:35:43;16.60;;;6.68;;
24644;SDS011;12780;45.502;9.146;2024-01-10T00:38:09;13.23;;;6.70;;
24644;SDS011;12780;45.502;9.146;2024-01-10T00:40:35;13.15;;;6.90;;
24644;SDS011;12780;45.502;9.146;2024-01-10T00:43:01;14.13;;;6.55;;
24644;SDS011;12780;45.502;9.146;2024-01-10T00:45:29;20.10;;;6.93;;
24644;SDS011;12780;45.502;9.146;2024-01-10T00:47:55;19.05;;;6.75;;
24644;SDS011;12780;45.502;9.146;2024-01-10T00:50:21;18.55;;;7.03;;
24644;SDS011;12780;45.502;9.146;2024-01-10T00:52:47;11.73;;;6.15;;
24644;SDS011;12780;45.502;9.146;2024-01-10T00:55:13;13.20;;;6.65;;
24644;SDS011;12780;45.502;9.146;2024-01-10T00:57:39;15.23;;;6.68;;
24644;SDS011;12780;45.502;9.146;2024-01-10T01:00:08;11.40;;;6.22;;
24644;SDS011;12780;45.502;9.146;2024-01-10T01:02:35;17.70;;;6.20;;
24644;SDS011;12780;45.502;9.146;2024-01-10T01:05:02;13.70;;;6.22;;
24644;SDS011;12780;45.502;9.146;2024-01-10T01:07:28;14.98;;;6.68;;
24644;SDS011;12780;45.502;9.146;2024-01-10T01:09:55;15.43;;;6.32;;
24644;SDS011;12780;45.502;9.146;2024-01-10T01:12:21;16.35;;;6.20;;
24644;SDS011;12780;45.502;9.146;2024-01-10T01:14:47;12.82;;;6.30;;
24644;SDS011;12780;45.502;9.146;2024-01-10T01:17:13;11.95;;;6.43;;
24644;SDS011;12780;45.502;9.146;2024-01-10T01:19:39;16.73;;;7.22;;
24644;SDS011;12780;45.502;9.146;2024-01-10T01:22:05;15.07;;;6.43;;
24644;SDS011;12780;45.502;9.146;2024-01-10T01:24:31;15.27;;;6.40;;
24644;SDS011;12780;45.502;9.146;2024-01-10T01:26:57;11.57;;;6.20;;
24644;SDS011;12780;45.502;9.146;2024-01-10T01:29:23;12.20;;;6.38;;
24644;SDS011;12780;45.502;9.146;2024-01-10T01:31:49;20.85;;;6.80;;
24644;SDS011;12780;45.502;9.146;2024-01-10T01:34:15;18.92;;;6.90;;
24644;SDS011;12780;45.502;9.146;2024-01-10T01:36:41;19.30;;;6.47;;
24644;SDS011;12780;45.502;9.146;2024-01-10T01:39:07;17.20;;;6.82;;
24644;SDS011;12780;45.502;9.146;2024-01-10T01:41:33;15.57;;;6.45;;
24644;SDS011;12780;45.502;9.146;2024-01-10T01:43:59;16.30;;;5.72;;
24644;SDS011;12780;45.502;9.146;2024-01-10T01:46:25;15.32;;;6.93;;
24644;SDS011;12780;45.502;9.146;2024-01-10T01:48:52;15.52;;;6.63;;
24644;SDS011;12780;45.502;9.146;2024-01-10T01:51:18;14.07;;;6.55;;
24644;SDS011;12780;45.502;9.146;2024-01-10T01:53:46;16.02;;;6.97;;
24644;SDS011;12780;45.502;9.146;2024-01-10T01:56:13;17.75;;;6.53;;
24644;SDS011;12780;45.502;9.146;2024-01-10T01:58:40;17.33;;;7.03;;
24644;SDS011;12780;45.502;9.146;2024-01-10T02:01:08;12.85;;;6.65;;
24644;SDS011;12780;45.502;9.146;2024-01-10T02:03:36;14.23;;;6.85;;
24644;SDS011;12780;45.502;9.146;2024-01-10T02:06:02;17.80;;;6.65;;
24644;SDS011;12780;45.502;9.146;2024-01-10T02:08:29;13.63;;;6.90;;
24644;SDS011;12780;45.502;9.146;2024-01-10T02:10:56;18.08;;;7.15;;
24644;SDS011;12780;45.502;9.146;2024-01-10T02:13:22;14.00;;;6.78;;
24644;SDS011;12780;45.502;9.146;2024-01-10T02:15:48;18.17;;;7.00;;
24644;SDS011;12780;45.502;9.146;2024-01-10T02:18:14;14.20;;;6.80;;
24644;SDS011;12780;45.502;9.146;2024-01-10T02:20:43;14.35;;;6.60;;
24644;SDS011;12780;45.502;9.146;2024-01-10T02:23:09;13.95;;;7.20;;
24644;SDS011;12780;45.502;9.146;2024-01-10T02:25:36;17.83;;;6.95;;
24644;SDS011;12780;45.502;9.146;2024-01-10T02:28:02;15.27;;;6.60;;
24644;SDS011;12780;45.502;9.146;2024-01-10T02:30:28;21.55;;;7.22;;
24644;SDS011;12780;45.502;9.146;2024-01-10T02:32:54;13.43;;;6.95;;
24644;SDS011;12780;45.502;9.146;2024-01-10T02:35:20;13.07;;;6.90;;
24644;SDS011;12780;45.502;9.146;2024-01-10T02:37:46;13.55;;;6.57;;
24644;SDS011;12780;45.502;9.146;2024-01-10T02:40:15;16.60;;;7.13;;
24644;SDS011;12780;45.502;9.146;2024-01-10T02:42:41;16.15;;;7.20;;
24644;SDS011;12780;45.502;9.146;2024-01-10T02:45:07;14.85;;;7.15;;
24644;SDS011;12780;45.502;9.146;2024-01-10T02:47:33;15.05;;;6.32;;
24644;SDS011;12780;45.502;9.146;2024-01-10T02:49:59;14.90;;;6.50;;
24644;SDS011;12780;45.502;9.146;2024-01-10T02:52:25;11.63;;;6.57;;
24644;SDS011;12780;45.502;9.146;2024-01-10T02:54:51;13.07;;;5.82;;
24644;SDS011;12780;45.502;9.146;2024-01-10T02:57:18;10.13;;;5.72;;
24644;SDS011;12780;45.502;9.146;2024-01-10T02:59:44;11.27;;;6.13;;
24644;SDS011;12780;45.502;9.146;2024-01-10T03:02:10;16.30;;;6.47;;
24644;SDS011;12780;45.502;9.146;2024-01-10T03:04:37;11.45;;;5.82;;
24644;SDS011;12780;45.502;9.146;2024-01-10T03:07:03;11.35;;;5.68;;
24644;SDS011;12780;45.502;9.146;2024-01-10T03:09:29;12.05;;;5.45;;
24644;SDS011;12780;45.502;9.146;2024-01-10T03:11:55;11.88;;;5.90;;
24644;SDS011;12780;45.502;9.146;2024-01-10T03:14:21;10.98;;;5.80;;
24644;SDS011;12780;45.502;9.146;2024-01-10T03:16:47;13.00;;;5.50;;
24644;SDS011;12780;45.502;9.146;2024-01-10T03:19:13;10.77;;;5.18;;
24644;SDS011;12780;45.502;9.146;2024-01-10T03:21:40;12.25;;;5.65;;
24644;SDS011;12780;45.502;9.146;2024-01-10T03:24:06;12.55;;;5.63;;
24644;SDS011;12780;45.502;9.146;2024-01-10T03:26:33;12.20;;;5.30;;
24644;SDS011;12780;45.502;9.146;2024-01-10T03:28:59;13.68;;;5.53;;
24644;SDS011;12780;45.502;9.146;2024-01-10T03:31:26;12.00;;;5.88;;
24644;SDS011;12780;45.502;9.146;2024-01-10T03:33:52;16.67;;;6.15;;
24644;SDS011;12780;45.502;9.146;2024-01-10T03:36:18;12.77;;;5.90;;
24644;SDS011;12780;45.502;9.146;2024-01-10T03:38:44;15.80;;;6.13;;
24644;SDS011;12780;45.502;9.146;2024-01-10T03:41:14;12.95;;;5.70;;
24644;SDS011;12780;45.502;9.146;2024-01-10T03:43:40;12.07;;;5.65;;
24644;SDS011;12780;45.502;9.146;2024-01-10T03:46:07;11.10;;;5.78;;
24644;SDS011;12780;45.502;9.146;2024-01-10T03:48:33;12.15;;;6.28;;
24644;SDS011;12780;45.502;9.146;2024-01-10T03:50:59;13.23;;;6.30;;
24644;SDS011;12780;45.502;9.146;2024-01-10T03:53:25;17.40;;;6.63;;
24644;SDS011;12780;45.502;9.146;2024-01-10T03:55:51;13.15;;;6.47;;
24644;SDS011;12780;45.502;9.146;2024-01-10T03:58:17;16.10;;;6.30;;
24644;SDS011;12780;45.502;9.146;2024-01-10T04:00:43;14.13;;;6.07;;
24644;SDS011;12780;45.502;9.146;2024-01-10T04:03:09;11.10;;;5.70;;
24644;SDS011;12780;45.502;9.146;2024-01-10T04:05:35;12.93;;;5.47;;
24644;SDS011;12780;45.502;9.146;2024-01-10T04:08:01;12.90;;;5.88;;
24644;SDS011;12780;45.502;9.146;2024-01-10T04:10:28;12.63;;;6.15;;
24644;SDS011;12780;45.502;9.146;2024-01-10T04:12:54;11.45;;;5.90;;
24644;SDS011;12780;45.502;9.146;2024-01-10T04:15:20;13.88;;;5.80;;
24644;SDS011;12780;45.502;9.146;2024-01-10T04:17:46;13.45;;;6.45;;
24644;SDS011;12780;45.502;9.146;2024-01-10T04:20:12;11.52;;;5.78;;
24644;SDS011;12780;45.502;9.146;2024-01-10T04:22:38;14.40;;;5.95;;
24644;SDS011;12780;45.502;9.146;2024-01-10T04:25:05;12.07;;;5.90;;
24644;SDS011;12780;45.502;9.146;2024-01-10T04:27:32;12.48;;;6.22;;
24644;SDS011;12780;45.502;9.146;2024-01-10T04:29:58;11.20;;;5.82;;
24644;SDS011;12780;45.502;9.146;2024-01-10T04:32:24;11.85;;;5.90;;
24644;SDS011;12780;45.502;9.146;2024-01-10T04:34:50;12.07;;;6.05;;
24644;SDS011;12780;45.502;9.146;2024-01-10T04:37:16;11.25;;;5.47;;
24644;SDS011;12780;45.502;9.146;2024-01-10T04:39:42;11.88;;;5.60;;
24644;SDS011;12780;45.502;9.146;2024-01-10T04:42:08;13.45;;;6.15;;
24644;SDS011;12780;45.502;9.146;2024-01-10T04:44:36;10.80;;;5.43;;
24644;SDS011;12780;45.502;9.146;2024-01-10T04:47:02;11.88;;;5.75;;
24644;SDS011;12780;45.502;9.146;2024-01-10T04:49:28;13.35;;;6.07;;
24644;SDS011;12780;45.502;9.146;2024-01-10T04:51:54;12.80;;;6.03;;
24644;SDS011;12780;45.502;9.146;2024-01-10T04:54:20;12.02;;;5.97;;
24644;SDS011;12780;45.502;9.146;2024-01-10T04:56:46;11.93;;;6.13;;
24644;SDS011;12780;45.502;9.146;2024-01-10T04:59:12;15.43;;;5.57;;
24644;SDS011;12780;45.502;9.146;2024-01-10T05:01:38;11.57;;;5.70;;
24644;SDS011;12780;45.502;9.146;2024-01-10T05:04:05;10.73;;;5.43;;
24644;SDS011;12780;45.502;9.146;2024-01-10T05:06:31;12.55;;;5.75;;
24644;SDS011;12780;45.502;9.146;2024-01-10T05:08:57;12.15;;;5.63;;
24644;SDS011;12780;45.502;9.146;2024-01-10T05:11:23;14.20;;;6.13;;
24644;SDS011;12780;45.502;9.146;2024-01-10T05:13:50;15.15;;;6.30;;
24644;SDS011;12780;45.502;9.146;2024-01-10T05:16:16;12.25;;;5.80;;
24644;SDS011;12780;45.502;9.146;2024-01-10T05:18:43;12.23;;;6.22;;
24644;SDS011;12780;45.502;9.146;2024-01-10T05:21:09;12.65;;;6.13;;
24644;SDS011;12780;45.502;9.146;2024-01-10T05:23:35;11.52;;;5.78;;
24644;SDS011;12780;45.502;9.146;2024-01-10T05:26:03;11.75;;;6.22;;
24644;SDS011;12780;45.502;9.146;2024-01-10T05:28:29;12.23;;;5.68;;
24644;SDS011;12780;45.502;9.146;2024-01-10T05:30:55;13.05;;;6.18;;
24644;SDS011;12780;45.502;9.146;2024-01-10T05:33:21;14.27;;;6.10;;
24644;SDS011;12780;45.502;9.146;2024-01-10T05:35:47;12.90;;;5.88;;
24644;SDS011;12780;45.502;9.146;2024-01-10T05:38:13;12.90;;;6.00;;
24644;SDS011;12780;45.502;9.146;2024-01-10T05:40:39;14.10;;;6.18;;
24644;SDS011;12780;45.502;9.146;2024-01-10T05:43:06;14.88;;;5.72;;
24644;SDS011;12780;45.502;9.146;2024-01-10T05:45:32;12.65;;;6.05;;
24644;SDS011;12780;45.502;9.146;2024-01-10T05:47:58;12.38;;;5.93;;
24644;SDS011;12780;45.502;9.146;2024-01-10T05:50:24;12.15;;;6.07;;
24644;SDS011;12780;45.502;9.146;2024-01-10T05:52:50;16.35;;;6.63;;
24644;SDS011;12780;45.502;9.146;2024-01-10T05:55:16;11.38;;;5.93;;
24644;SDS011;12780;45.502;9.146;2024-01-10T05:57:42;15.13;;;6.07;;
24644;SDS011;12780;45.502;9.146;2024-01-10T06:00:08;13.23;;;6.32;;
24644;SDS011;12780;45.502;9.146;2024-01-10T06:02:38;15.07;;;6.60;;
24644;SDS011;12780;45.502;9.146;2024-01-10T06:05:07;12.30;;;6.25;;
24644;SDS011;12780;45.502;9.146;2024-01-10T06:07:34;12.25;;;6.28;;
24644;SDS011;12780;45.502;9.146;2024-01-10T06:10:00;16.60;;;6.43;;
24644;SDS011;12780;45.502;9.146;2024-01-10T06:12:26;10.95;;;5.53;;
24644;SDS011;12780;45.502;9.146;2024-01-10T06:14:53;16.80;;;6.68;;
24644;SDS011;12780;45.502;9.146;2024-01-10T06:17:19;12.27;;;6.03;;
24644;SDS011;12780;45.502;9.146;2024-01-10T06:19:45;12.52;;;6.40;;
24644;SDS011;12780;45.502;9.146;2024-01-10T06:22:11;14.23;;;6.40;;
24644;SDS011;12780;45.502;9.146;2024-01-10T06:24:37;11.15;;;6.00;;
24644;SDS011;12780;45.502;9.146;2024-01-10T06:27:04;10.02;;;5.55;;
24644;SDS011;12780;45.502;9.146;2024-01-10T06:29:31;15.02;;;6.05;;
24644;SDS011;12780;45.502;9.146;2024-01-10T06:31:57;31.25;;;6.20;;
24644;SDS011;12780;45.502;9.146;2024-01-10T06:34:26;13.93;;;5.85;;
24644;SDS011;12780;45.502;9.146;2024-01-10T06:36:52;15.77;;;6.50;;
24644;SDS011;12780;45.502;9.146;2024-01-10T06:39:18;13.65;;;6.20;;
24644;SDS011;12780;45.502;9.146;2024-01-10T06:41:45;11.13;;;5.93;;
24644;SDS011;12780;45.502;9.146;2024-01-10T06:44:12;16.92;;;6.20;;
24644;SDS011;12780;45.502;9.146;2024-01-10T06:46:38;12.25;;;6.13;;
24644;SDS011;12780;45.502;9.146;2024-01-10T06:49:04;14.75;;;6.32;;
24644;SDS011;12780;45.502;9.146;2024-01-10T06:51:30;14.95;;;6.53;;
24644;SDS011;12780;45.502;9.146;2024-01-10T06:53:56;14.05;;;6.28;;
24644;SDS011;12780;45.502;9.146;2024-01-10T06:56:28;11.13;;;5.60;;
24644;SDS011;12780;45.502;9.146;2024-01-10T06:58:54;14.95;;;5.95;;
24644;SDS011;12780;45.502;9.146;2024-01-10T07:01:20;17.77;;;5.88;;
24644;SDS011;12780;45.502;9.146;2024-01-10T07:03:47;12.93;;;5.40;;
24644;SDS011;12780;45.502;9.146;2024-01-10T07:06:13;14.75;;;5.80;;
24644;SDS011;12780;45.502;9.146;2024-01-10T07:08:42;13.05;;;5.55;;
24644;SDS011;12780;45.502;9.146;2024-01-10T07:11:09;11.52;;;5.30;;
24644;SDS011;12780;45.502;9.146;2024-01-10T07:13:36;13.25;;;5.63;;
24644;SDS011;12780;45.502;9.146;2024-01-10T07:16:02;13.80;;;5.72;;
24644;SDS011;12780;45.502;9.146;2024-01-10T07:18:29;17.42;;;6.10;;
24644;SDS011;12780;45.502;9.146;2024-01-10T07:20:58;17.30;;;5.97;;
24644;SDS011;12780;45.502;9.146;2024-01-10T07:23:24;14.38;;;6.47;;
24644;SDS011;12780;45.502;9.146;2024-01-10T07:25:50;17.35;;;6.57;;
24644;SDS011;12780;45.502;9.146;2024-01-10T07:28:16;16.10;;;6.40;;
24644;SDS011;12780;45.502;9.146;2024-01-10T07:30:43;15.10;;;6.63;;
24644;SDS011;12780;45.502;9.146;2024-01-10T07:33:09;15.35;;;6.80;;
24644;SDS011;12780;45.502;9.146;2024-01-10T07:35:35;16.55;;;6.05;;
24644;SDS011;12780;45.502;9.146;2024-01-10T07:38:03;15.38;;;6.72;;
24644;SDS011;12780;45.502;9.146;2024-01-10T07:40:29;20.17;;;6.55;;
24644;SDS011;12780;45.502;9.146;2024-01-10T07:42:55;14.65;;;6.32;;
24644;SDS011;12780;45.502;9.146;2024-01-10T07:45:22;13.30;;;6.28;;
24644;SDS011;12780;45.502;9.146;2024-01-10T07:47:48;16.60;;;6.55;;
24644;SDS011;12780;45.502;9.146;2024-01-10T07:50:14;13.25;;;6.40;;
24644;SDS011;12780;45.502;9.146;2024-01-10T07:52:40;14.70;;;6.25;;
24644;SDS011;12780;45.502;9.146;2024-01-10T07:55:06;15.90;;;6.43;;
24644;SDS011;12780;45.502;9.146;2024-01-10T07:57:33;13.73;;;6.18;;
24644;SDS011;12780;45.502;9.146;2024-01-10T08:00:00;15.00;;;6.20;;
24644;SDS011;12780;45.502;9.146;2024-01-10T08:02:28;16.40;;;6.22;;
24644;SDS011;12780;45.502;9.146;2024-01-10T08:04:54;15.85;;;6.50;;
24644;SDS011;12780;45.502;9.146;2024-01-10T08:07:20;12.82;;;5.90;;
24644;SDS011;12780;45.502;9.146;2024-01-10T08:09:46;14.35;;;6.30;;
24644;SDS011;12780;45.502;9.146;2024-01-10T08:12:12;18.40;;;6.50;;
24644;SDS011;12780;45.502;9.146;2024-01-10T08:14:39;10.95;;;5.95;;
24644;SDS011;12780;45.502;9.146;2024-01-10T08:17:05;11.35;;;5.60;;
24644;SDS011;12780;45.502;9.146;2024-01-10T08:19:32;12.63;;;6.18;;
24644;SDS011;12780;45.502;9.146;2024-01-10T08:21:58;13.98;;;6.70;;
24644;SDS011;12780;45.502;9.146;2024-01-10T08:24:24;15.85;;;6.38;;
24644;SDS011;12780;45.502;9.146;2024-01-10T08:26:50;17.25;;;6.43;;
24644;SDS011;12780;45.502;9.146;2024-01-10T08:29:19;13.77;;;6.60;;
24644;SDS011;12780;45.502;9.146;2024-01-10T08:31:45;15.70;;;7.07;;
24644;SDS011;12780;45.502;9.146;2024-01-10T08:34:11;14.77;;;6.43;;
24644;SDS011;12780;45.502;9.146;2024-01-10T08:36:37;14.15;;;6.13;;
24644;SDS011;12780;45.502;9.146;2024-01-10T08:39:03;18.35;;;6.40;;
24644;SDS011;12780;45.502;9.146;2024-01-10T08:41:30;15.63;;;7.20;;
24644;SDS011;12780;45.502;9.146;2024-01-10T08:43:56;16.27;;;6.88;;
24644;SDS011;12780;45.502;9.146;2024-01-10T08:46:22;13.23;;;6.35;;
24644;SDS011;12780;45.502;9.146;2024-01-10T08:48:49;18.08;;;6.50;;
24644;SDS011;12780;45.502;9.146;2024-01-10T08:51:15;15.18;;;6.25;;
24644;SDS011;12780;45.502;9.146;2024-01-10T08:53:42;12.13;;;6.05;;
24644;SDS011;12780;45.502;9.146;2024-01-10T08:56:08;12.60;;;6.20;;
24644;SDS011;12780;45.502;9.146;2024-01-10T08:58:35;16.15;;;6.53;;
24644;SDS011;12780;45.502;9.146;2024-01-10T09:01:01;15.35;;;7.18;;
24644;SDS011;12780;45.502;9.146;2024-01-10T09:03:27;12.93;;;6.90;;
24644;SDS011;12780;45.502;9.146;2024-01-10T09:05:53;14.70;;;7.10;;
24644;SDS011;12780;45.502;9.146;2024-01-10T09:08:19;20.85;;;7.70;;
24644;SDS011;12780;45.502;9.146;2024-01-10T09:10:45;16.52;;;6.75;;
24644;SDS011;12780;45.502;9.146;2024-01-10T09:13:14;18.13;;;7.55;;
24644;SDS011;12780;45.502;9.146;2024-01-10T09:15:40;14.43;;;7.00;;
24644;SDS011;12780;45.502;9.146;2024-01-10T09:18:06;17.48;;;6.68;;
24644;SDS011;12780;45.502;9.146;2024-01-10T09:20:32;16.08;;;7.15;;
24644;SDS011;12780;45.502;9.146;2024-01-10T09:22:58;15.45;;;7.15;;
24644;SDS011;12780;45.502;9.146;2024-01-10T09:25:27;12.90;;;6.43;;
24644;SDS011;12780;45.502;9.146;2024-01-10T09:27:53;16.48;;;6.63;;
24644;SDS011;12780;45.502;9.146;2024-01-10T09:30:19;13.88;;;6.35;;
24644;SDS011;12780;45.502;9.146;2024-01-10T09:32:46;16.17;;;6.47;;
24644;SDS011;12780;45.502;9.146;2024-01-10T09:35:12;12.93;;;6.65;;
24644;SDS011;12780;45.502;9.146;2024-01-10T09:37:39;14.75;;;7.07;;
24644;SDS011;12780;45.502;9.146;2024-01-10T09:40:05;12.57;;;6.60;;
24644;SDS011;12780;45.502;9.146;2024-01-10T09:42:32;15.13;;;7.00;;
24644;SDS011;12780;45.502;9.146;2024-01-10T09:45:00;12.70;;;7.00;;
24644;SDS011;12780;45.502;9.146;2024-01-10T09:47:27;16.63;;;7.03;;
24644;SDS011;12780;45.502;9.146;2024-01-10T09:49:53;18.38;;;7.22;;
24644;SDS011;12780;45.502;9.146;2024-01-10T09:52:26;13.43;;;6.80;;
24644;SDS011;12780;45.502;9.146;2024-01-10T09:54:53;21.30;;;7.28;;
24644;SDS011;12780;45.502;9.146;2024-01-10T09:57:21;15.35;;;7.13;;
24644;SDS011;12780;45.502;9.146;2024-01-10T09:59:48;16.25;;;6.63;;
24644;SDS011;12780;45.502;9.146;2024-01-10T10:02:16;14.20;;;7.18;;
24644;SDS011;12780;45.502;9.146;2024-01-10T10:04:44;14.85;;;6.60;;
24644;SDS011;12780;45.502;9.146;2024-01-10T10:07:12;18.55;;;7.10;;
24644;SDS011;12780;45.502;9.146;2024-01-10T10:09:38;13.90;;;7.03;;
24644;SDS011;12780;45.502;9.146;2024-01-10T10:12:04;16.73;;;6.88;;
24644;SDS011;12780;45.502;9.146;2024-01-10T10:14:30;18.45;;;6.90;;
24644;SDS011;12780;45.502;9.146;2024-01-10T10:16:57;13.25;;;6.95;;
24644;SDS011;12780;45.502;9.146;2024-01-10T10:19:39;15.70;;;7.47;;
24644;SDS011;12780;45.502;9.146;2024-01-10T10:22:08;16.52;;;7.28;;
24644;SDS011;12780;45.502;9.146;2024-01-10T10:24:35;15.43;;;6.75;;
24644;SDS011;12780;45.502;9.146;2024-01-10T10:27:01;13.77;;;7.03;;
24644;SDS011;12780;45.502;9.146;2024-01-10T10:29:27;12.35;;;6.82;;
24644;SDS011;12780;45.502;9.146;2024-01-10T10:31:54;16.45;;;6.93;;
24644;SDS011;12780;45.502;9.146;2024-01-10T10:34:20;17.38;;;7.30;;
24644;SDS011;12780;45.502;9.146;2024-01-10T10:36:50;16.00;;;7.55;;
24644;SDS011;12780;45.502;9.146;2024-01-10T10:39:16;16.02;;;7.32;;
24644;SDS011;12780;45.502;9.146;2024-01-10T10:41:42;19.92;;;7.72;;
24644;SDS011;12780;45.502;9.146;2024-01-10T10:44:09;14.82;;;7.18;;
24644;SDS011;12780;45.502;9.146;2024-01-10T10:46:35;16.02;;;7.55;;
24644;SDS011;12780;45.502;9.146;2024-01-10T10:49:05;19.27;;;7.35;;
24644;SDS011;12780;45.502;9.146;2024-01-10T10:51:32;17.98;;;7.65;;
24644;SDS011;12780;45.502;9.146;2024-01-10T10:53:59;15.75;;;7.93;;
24644;SDS011;12780;45.502;9.146;2024-01-10T10:56:26;17.50;;;8.80;;
24644;SDS011;12780;45.502;9.146;2024-01-10T10:58:55;15.57;;;7.78;;
24644;SDS011;12780;45.502;9.146;2024-01-10T11:01:22;24.02;;;8.27;;
24644;SDS011;12780;45.502;9.146;2024-01-10T11:03:48;16.85;;;8.20;;
24644;SDS011;12780;45.502;9.146;2024-01-10T11:06:15;18.13;;;7.93;;
24644;SDS011;12780;45.502;9.146;2024-01-10T11:08:44;15.45;;;7.68;;
24644;SDS011;12780;45.502;9.146;2024-01-10T11:11:14;18.00;;;7.95;;
24644;SDS011;12780;45.502;9.146;2024-01-10T11:13:56;14.98;;;7.70;;
24644;SDS011;12780;45.502;9.146;2024-01-10T11:19:22;15.90;;;7.78;;
24644;SDS011;12780;45.502;9.146;2024-01-10T11:24:35;15.65;;;7.40;;
24644;SDS011;12780;45.502;9.146;2024-01-10T11:27:12;18.33;;;7.97;;
24644;SDS011;12780;45.502;9.146;2024-01-10T11:29:38;19.65;;;8.23;;
24644;SDS011;12780;45.502;9.146;2024-01-10T11:32:14;19.05;;;7.55;;
24644;SDS011;12780;45.502;9.146;2024-01-10T11:37:18;18.70;;;8.30;;
24644;SDS011;12780;45.502;9.146;2024-01-10T11:39:44;16.00;;;8.43;;
24644;SDS011;12780;45.502;9.146;2024-01-10T11:42:11;22.05;;;8.48;;
24644;SDS011;12780;45.502;9.146;2024-01-10T11:44:50;21.85;;;8.93;;
24644;SDS011;12780;45.502;9.146;2024-01-10T11:47:16;17.73;;;8.27;;
24644;SDS011;12780;45.502;9.146;2024-01-10T11:49:53;18.50;;;8.05;;
24644;SDS011;12780;45.502;9.146;2024-01-10T11:52:21;15.32;;;8.80;;
24644;SDS011;12780;45.502;9.146;2024-01-10T11:54:48;19.45;;;8.23;;
24644;SDS011;12780;45.502;9.146;2024-01-10T11:57:19;22.10;;;9.27;;
24644;SDS011;12780;45.502;9.146;2024-01-10T11:59:48;16.42;;;8.07;;
24644;SDS011;12780;45.502;9.146;2024-01-10T12:02:15;16.05;;;8.27;;
24644;SDS011;12780;45.502;9.146;2024-01-10T12:04:43;17.48;;;8.55;;
24644;SDS011;12780;45.502;9.146;2024-01-10T12:07:10;20.58;;;8.43;;
24644;SDS011;12780;45.502;9.146;2024-01-10T12:09:38;17.30;;;8.70;;
24644;SDS011;12780;45.502;9.146;2024-01-10T12:12:04;19.38;;;8.80;;
24644;SDS011;12780;45.502;9.146;2024-01-10T12:14:30;23.33;;;9.18;;
24644;SDS011;12780;45.502;9.146;2024-01-10T12:16:57;19.83;;;9.35;;
24644;SDS011;12780;45.502;9.146;2024-01-10T12:19:23;15.70;;;8.40;;
24644;SDS011;12780;45.502;9.146;2024-01-10T12:21:49;19.63;;;8.85;;
24644;SDS011;12780;45.502;9.146;2024-01-10T12:24:15;18.88;;;8.32;;
24644;SDS011;12780;45.502;9.146;2024-01-10T12:26:45;20.50;;;8.77;;
24644;SDS011;12780;45.502;9.146;2024-01-10T12:29:11;16.40;;;8.43;;
24644;SDS011;12780;45.502;9.146;2024-01-10T12:31:37;20.20;;;8.95;;
24644;SDS011;12780;45.502;9.146;2024-01-10T12:34:04;18.27;;;8.65;;
24644;SDS011;12780;45.502;9.146;2024-01-10T12:36:34;21.48;;;8.13;;
24644;SDS011;12780;45.502;9.146;2024-01-10T12:39:00;17.90;;;9.13;;
24644;SDS011;12780;45.502;9.146;2024-01-10T12:41:26;20.77;;;9.23;;
24644;SDS011;12780;45.502;9.146;2024-01-10T12:43:53;17.23;;;8.90;;
24644;SDS011;12780;45.502;9.146;2024-01-10T12:46:20;20.27;;;8.88;;
24644;SDS011;12780;45.502;9.146;2024-01-10T12:48:49;17.23;;;8.73;;
24644;SDS011;12780;45.502;9.146;2024-01-10T12:51:23;16.77;;;9.25;;
24644;SDS011;12780;45.502;9.146;2024-01-10T12:53:49;20.55;;;9.82;;
24644;SDS011;12780;45.502;9.146;2024-01-10T12:56:15;18.40;;;9.95;;
24644;SDS011;12780;45.502;9.146;2024-01-10T12:58:41;18.67;;;8.85;;
24644;SDS011;12780;45.502;9.146;2024-01-10T13:01:08;24.90;;;9.68;;
24644;SDS011;12780;45.502;9.146;2024-01-10T13:03:34;19.02;;;9.15;;
24644;SDS011;12780;45.502;9.146;2024-01-10T13:06:00;20.95;;;9.35;;
24644;SDS011;12780;45.502;9.146;2024-01-10T13:08:26;18.90;;;9.18;;
24644;SDS011;12780;45.502;9.146;2024-01-10T13:10:52;21.27;;;9.45;;
24644;SDS011;12780;45.502;9.146;2024-01-10T13:13:18;21.52;;;9.82;;
24644;SDS011;12780;45.502;9.146;2024-01-10T13:15:47;18.25;;;9.93;;
24644;SDS011;12780;45.502;9.146;2024-01-10T13:18:13;17.80;;;9.15;;
24644;SDS011;12780;45.502;9.146;2024-01-10T13:20:40;19.13;;;9.35;;
24644;SDS011;12780;45.502;9.146;2024-01-10T13:23:06;19.20;;;9.00;;
24644;SDS011;12780;45.502;9.146;2024-01-10T13:25:32;24.17;;;9.80;;
24644;SDS011;12780;45.502;9.146;2024-01-10T13:27:58;19.60;;;9.00;;
24644;SDS011;12780;45.502;9.146;2024-01-10T13:30:25;20.88;;;9.32;;
24644;SDS011;12780;45.502;9.146;2024-01-10T13:32:51;22.95;;;10.50;;
24644;SDS011;12780;45.502;9.146;2024-01-10T13:35:17;17.00;;;9.27;;
24644;SDS011;12780;45.502;9.146;2024-01-10T13:37:44;18.25;;;9.85;;
24644;SDS011;12780;45.502;9.146;2024-01-10T13:40:11;18.52;;;8.52;;
24644;SDS011;12780;45.502;9.146;2024-01-10T13:42:40;21.83;;;9.68;;
24644;SDS011;12780;45.502;9.146;2024-01-10T13:45:06;22.38;;;10.43;;
24644;SDS011;12780;45.502;9.146;2024-01-10T13:47:33;24.38;;;9.95;;
24644;SDS011;12780;45.502;9.146;2024-01-10T13:49:59;20.80;;;9.85;;
24644;SDS011;12780;45.502;9.146;2024-01-10T13:52:26;20.73;;;9.55;;
24644;SDS011;12780;45.502;9.146;2024-01-10T13:54:52;22.27;;;9.93;;
24644;SDS011;12780;45.502;9.146;2024-01-10T13:57:18;21.77;;;10.25;;
24644;SDS011;12780;45.502;9.146;2024-01-10T13:59:44;18.58;;;9.55;;
24644;SDS011;12780;45.502;9.146;2024-01-10T14:02:12;20.77;;;9.75;;
24644;SDS011;12780;45.502;9.146;2024-01-10T14:04:38;18.92;;;9.90;;
24644;SDS011;12780;45.502;9.146;2024-01-10T14:07:04;21.10;;;10.60;;
24644;SDS011;12780;45.502;9.146;2024-01-10T14:09:30;19.85;;;10.23;;
24644;SDS011;12780;45.502;9.146;2024-01-10T14:11:56;25.42;;;10.32;;
24644;SDS011;12780;45.502;9.146;2024-01-10T14:14:23;22.65;;;10.13;;
24644;SDS011;12780;45.502;9.146;2024-01-10T14:16:49;20.65;;;9.82;;
24644;SDS011;12780;45.502;9.146;2024-01-10T14:19:15;19.15;;;10.18;;
24644;SDS011;12780;45.502;9.146;2024-01-10T14:21:44;25.13;;;10.77;;
24644;SDS011;12780;45.502;9.146;2024-01-10T14:24:13;18.60;;;9.70;;
24644;SDS011;12780;45.502;9.146;2024-01-10T14:26:39;18.90;;;9.90;;
24644;SDS011;12780;45.502;9.146;2024-01-10T14:29:05;21.25;;;9.82;;
24644;SDS011;12780;45.502;9.146;2024-01-10T14:31:31;24.63;;;9.65;;
24644;SDS011;12780;45.502;9.146;2024-01-10T14:33:57;22.85;;;10.30;;
24644;SDS011;12780;45.502;9.146;2024-01-10T14:36:23;20.58;;;9.85;;
24644;SDS011;12780;45.502;9.146;2024-01-10T14:38:49;23.13;;;10.90;;